QFA321 YBCS-YBMK
Flight info
| Callsign | QFA321 |
|---|---|
| Flight time | N/A |
| Altitude | 29000 |
| Route | AKROM OVRON |
| Aircraft | A21N/M-VGDW/C |
Departure
| Time | 2026-04-27 11:40 |
|---|---|
| Airport | Cairns International Airport (YBCS) |
Arrival
| Time | N/A |
|---|---|
| Airport | Mackay Airport (YBMK) |
| Time | Latitude | Longitude | Altitude | Speed | Heading |
|---|---|---|---|---|---|
| 2026-04-27 10:52 | -16.87780 | 145.75296 | 18 ft | 0 kts | 66° |
| 2026-04-27 11:24 | -16.87784 | 145.75287 | 17 ft | 2 kts | 71° |
| 2026-04-27 11:24 | -16.87789 | 145.75273 | 17 ft | 0 kts | 66° |
| 2026-04-27 11:24 | -16.87794 | 145.75262 | 17 ft | 2 kts | 58° |
| 2026-04-27 11:25 | -16.87803 | 145.75250 | 17 ft | 2 kts | 46° |
| 2026-04-27 11:25 | -16.87814 | 145.75240 | 17 ft | 2 kts | 33° |
| 2026-04-27 11:25 | -16.87827 | 145.75232 | 17 ft | 2 kts | 22° |
| 2026-04-27 11:25 | -16.87842 | 145.75227 | 17 ft | 2 kts | 10° |
| 2026-04-27 11:26 | -16.87857 | 145.75226 | 17 ft | 2 kts | 358° |
| 2026-04-27 11:26 | -16.87872 | 145.75227 | 17 ft | 2 kts | 347° |
| 2026-04-27 11:26 | -16.87881 | 145.75230 | 17 ft | 0 kts | 339° |
| 2026-04-27 11:26 | -16.87886 | 145.75233 | 17 ft | 0 kts | 337° |
| 2026-04-27 11:32 | -16.87886 | 145.75232 | 17 ft | 0 kts | 337° |
| 2026-04-27 11:33 | -16.87877 | 145.75229 | 17 ft | 1 kts | 337° |
| 2026-04-27 11:33 | -16.87860 | 145.75221 | 17 ft | 3 kts | 337° |
| 2026-04-27 11:33 | -16.87851 | 145.75217 | 17 ft | 0 kts | 336° |
| 2026-04-27 11:34 | -16.87850 | 145.75217 | 17 ft | 0 kts | 323° |
| 2026-04-27 11:34 | -16.87852 | 145.75209 | 17 ft | 1 kts | 209° |
| 2026-04-27 11:34 | -16.87886 | 145.75205 | 17 ft | 7 kts | 208° |
| 2026-04-27 11:35 | -16.87901 | 145.75160 | 17 ft | 7 kts | 282° |
| 2026-04-27 11:35 | -16.87855 | 145.75122 | 17 ft | 9 kts | 337° |
| 2026-04-27 11:35 | -16.87806 | 145.75099 | 17 ft | 1 kts | 336° |
| 2026-04-27 11:35 | -16.87805 | 145.75099 | 17 ft | 1 kts | 336° |
| 2026-04-27 11:36 | -16.87765 | 145.75081 | 17 ft | 9 kts | 336° |
| 2026-04-27 11:36 | -16.87702 | 145.75055 | 17 ft | 10 kts | 340° |
| 2026-04-27 11:36 | -16.87632 | 145.75029 | 17 ft | 11 kts | 340° |
| 2026-04-27 11:36 | -16.87555 | 145.74999 | 17 ft | 11 kts | 338° |
| 2026-04-27 11:37 | -16.87477 | 145.74963 | 17 ft | 12 kts | 334° |
| 2026-04-27 11:37 | -16.87396 | 145.74924 | 17 ft | 13 kts | 334° |
| 2026-04-27 11:37 | -16.87312 | 145.74884 | 17 ft | 13 kts | 338° |
| 2026-04-27 11:37 | -16.87223 | 145.74844 | 17 ft | 13 kts | 336° |
| 2026-04-27 11:38 | -16.87133 | 145.74805 | 17 ft | 14 kts | 336° |
| 2026-04-27 11:38 | -16.87050 | 145.74751 | 17 ft | 13 kts | 298° |
| 2026-04-27 11:38 | -16.87061 | 145.74670 | 18 ft | 10 kts | 242° |
| 2026-04-27 11:38 | -16.87104 | 145.74606 | 18 ft | 10 kts | 204° |
| 2026-04-27 11:39 | -16.87157 | 145.74614 | 18 ft | 7 kts | 154° |
| 2026-04-27 11:39 | -16.87303 | 145.74684 | 18 ft | 55 kts | 156° |
| 2026-04-27 11:39 | -16.87890 | 145.74947 | 18 ft | 123 kts | 156° |
| 2026-04-27 11:39 | -16.88830 | 145.75371 | 200 ft | 158 kts | 157° |
| 2026-04-27 11:40 | -16.89786 | 145.75899 | 774 ft | 159 kts | 134° |
| 2026-04-27 11:40 | -16.90114 | 145.76950 | 1401 ft | 161 kts | 87° |
| 2026-04-27 11:40 | -16.89568 | 145.78035 | 1736 ft | 183 kts | 46° |
| 2026-04-27 11:40 | -16.88463 | 145.78830 | 2080 ft | 200 kts | 39° |
| 2026-04-27 11:41 | -16.87328 | 145.79654 | 2667 ft | 201 kts | 41° |
| 2026-04-27 11:41 | -16.86198 | 145.80505 | 3319 ft | 201 kts | 43° |
| 2026-04-27 11:41 | -16.85082 | 145.81384 | 3930 ft | 202 kts | 47° |
| 2026-04-27 11:41 | -16.84383 | 145.82623 | 4294 ft | 205 kts | 85° |
| 2026-04-27 11:42 | -16.84734 | 145.84076 | 4596 ft | 220 kts | 127° |
| 2026-04-27 11:42 | -16.86029 | 145.85051 | 4953 ft | 241 kts | 153° |
| 2026-04-27 11:42 | -16.87606 | 145.85815 | 5459 ft | 255 kts | 152° |
| 2026-04-27 11:42 | -16.89193 | 145.86662 | 6145 ft | 261 kts | 150° |
| 2026-04-27 11:43 | -16.90797 | 145.87573 | 6900 ft | 265 kts | 149° |
| 2026-04-27 11:43 | -16.92414 | 145.88533 | 7647 ft | 269 kts | 148° |
| 2026-04-27 11:43 | -16.94043 | 145.89525 | 8363 ft | 274 kts | 148° |
| 2026-04-27 11:43 | -16.95685 | 145.90541 | 9050 ft | 278 kts | 147° |
| 2026-04-27 11:44 | -16.97356 | 145.91588 | 9719 ft | 280 kts | 147° |
| 2026-04-27 11:44 | -16.98992 | 145.92639 | 10091 ft | 271 kts | 148° |
| 2026-04-27 11:44 | -17.00571 | 145.93645 | 10287 ft | 264 kts | 150° |
| 2026-04-27 11:44 | -17.02137 | 145.94612 | 10115 ft | 257 kts | 149° |
| 2026-04-27 11:45 | -17.03672 | 145.95575 | 10042 ft | 256 kts | 148° |
| 2026-04-27 11:45 | -17.04698 | 145.96230 | 10012 ft | 255 kts | 148° |
| 2026-04-27 11:45 | -17.06708 | 145.97516 | 9986 ft | 255 kts | 148° |
| 2026-04-27 11:45 | -17.08227 | 145.98486 | 9980 ft | 255 kts | 148° |
| 2026-04-27 11:46 | -17.09759 | 145.99463 | 9980 ft | 255 kts | 148° |
| 2026-04-27 11:46 | -17.11272 | 146.00426 | 9986 ft | 255 kts | 148° |
| 2026-04-27 11:46 | -17.12790 | 146.01392 | 9982 ft | 255 kts | 148° |
| 2026-04-27 11:46 | -17.14316 | 146.02362 | 9976 ft | 255 kts | 148° |
| 2026-04-27 11:47 | -17.15843 | 146.03334 | 9981 ft | 255 kts | 148° |
| 2026-04-27 11:47 | -17.17361 | 146.04300 | 9979 ft | 255 kts | 148° |
| 2026-04-27 11:47 | -17.18873 | 146.05252 | 9984 ft | 256 kts | 149° |